createdAt,value
2022-10-04T06:13:51.597Z,10.20
2022-10-04T06:16:29.351Z,10.30
2022-10-04T06:19:24.094Z,10.40
2022-10-04T06:22:09.628Z,10.50
2022-10-04T06:24:42.257Z,10.50
2022-10-04T06:27:17.290Z,10.60
2022-10-04T06:29:52.969Z,10.60
2022-10-04T06:32:53.622Z,10.80
2022-10-04T06:36:02.257Z,10.80
2022-10-04T06:39:04.395Z,10.90
2022-10-04T06:42:07.581Z,10.90
2022-10-04T06:44:55.480Z,11.00
2022-10-04T06:47:42.200Z,11.00
2022-10-04T06:50:23.733Z,11.10
2022-10-04T06:53:16.854Z,11.20
2022-10-04T06:56:17.723Z,11.20
2022-10-04T06:59:18.687Z,11.20
2022-10-04T07:01:53.986Z,11.40
2022-10-04T07:04:45.012Z,11.40
2022-10-04T07:07:35.584Z,11.40
2022-10-04T07:10:30.030Z,11.40
2022-10-04T07:13:11.825Z,11.40
2022-10-04T07:15:48.379Z,11.50
2022-10-04T07:18:25.241Z,11.60
2022-10-04T07:21:02.604Z,11.70
2022-10-04T07:23:35.510Z,11.70
2022-10-04T07:26:08.185Z,11.80
2022-10-04T07:29:00.452Z,11.80
2022-10-04T07:31:32.270Z,11.90
2022-10-04T07:34:05.579Z,12.00
2022-10-04T07:36:45.377Z,12.10
2022-10-04T07:39:17.406Z,12.10
2022-10-04T07:41:51.202Z,12.10
2022-10-04T07:44:28.268Z,12.20
2022-10-04T07:47:01.557Z,12.20
2022-10-04T07:49:40.504Z,12.10
2022-10-04T07:52:54.730Z,12.20
2022-10-04T07:55:32.226Z,12.30
2022-10-04T07:58:18.228Z,12.30
2022-10-04T08:00:53.905Z,12.40
2022-10-04T08:03:33.965Z,12.50
2022-10-04T08:06:13.698Z,12.60
2022-10-04T08:09:05.149Z,12.70
2022-10-04T08:11:44.617Z,12.80
2022-10-04T08:14:25.528Z,12.90
2022-10-04T08:17:13.039Z,13.00
2022-10-04T08:19:58.403Z,13.10
2022-10-04T08:22:40.514Z,13.10
2022-10-04T08:25:19.667Z,13.10
2022-10-04T08:28:14.558Z,13.10
2022-10-04T08:30:58.848Z,13.20
2022-10-04T08:33:45.840Z,13.20
2022-10-04T08:36:28.768Z,13.20
2022-10-04T08:38:59.812Z,13.30
2022-10-04T08:42:07.032Z,13.40
2022-10-04T08:45:13.559Z,13.40
2022-10-04T08:48:31.674Z,13.50
2022-10-04T08:51:40.737Z,13.40
2022-10-04T08:54:50.155Z,13.40
2022-10-04T08:57:45.666Z,13.40
2022-10-04T09:00:18.161Z,13.40
2022-10-04T09:03:13.941Z,13.50
2022-10-04T09:06:18.045Z,13.60
2022-10-04T09:09:39.746Z,14.00
2022-10-04T09:12:29.783Z,14.30
2022-10-04T09:15:18.911Z,14.60
2022-10-04T09:17:55.511Z,14.80
2022-10-04T09:20:38.897Z,15.20
2022-10-04T09:23:23.425Z,15.50
2022-10-04T09:26:07.448Z,15.80
2022-10-04T09:29:15.646Z,16.10
2022-10-04T09:32:12.325Z,16.30
2022-10-04T09:34:58.135Z,16.30
2022-10-04T09:37:55.338Z,16.20
2022-10-04T09:40:49.668Z,16.00
2022-10-04T09:43:54.606Z,15.80
2022-10-04T09:46:45.249Z,15.50
2022-10-04T09:49:35.579Z,15.30
2022-10-04T09:52:24.852Z,15.30
2022-10-04T09:55:10.525Z,15.30
2022-10-04T09:57:53.685Z,15.40
2022-10-04T10:00:25.422Z,15.80
2022-10-04T10:03:51.050Z,16.20
2022-10-04T10:06:49.893Z,16.70
2022-10-04T10:09:44.854Z,17.10
2022-10-04T10:13:03.822Z,17.50
2022-10-04T10:15:44.369Z,17.80
2022-10-04T10:18:20.019Z,18.30
2022-10-04T10:21:06.678Z,18.60
2022-10-04T10:24:00.239Z,18.90
2022-10-04T10:26:44.252Z,19.30
2022-10-04T10:29:42.123Z,19.60
2022-10-04T10:32:35.541Z,20.00
2022-10-04T10:35:44.802Z,20.20
2022-10-04T10:38:40.565Z,20.20
2022-10-04T10:41:26.218Z,20.50
2022-10-04T10:44:08.093Z,20.90
2022-10-04T10:47:00.152Z,21.20
2022-10-04T10:49:42.171Z,21.40
2022-10-04T10:52:43.693Z,21.40
2022-10-04T10:55:59.365Z,21.60
2022-10-04T10:59:05.733Z,21.40
2022-10-04T11:02:06.331Z,21.10
2022-10-04T11:04:54.773Z,21.10
2022-10-04T11:07:39.188Z,21.10
2022-10-04T11:10:40.803Z,21.50
2022-10-04T11:13:26.610Z,21.60
2022-10-04T11:16:35.928Z,22.00
2022-10-04T11:19:40.484Z,22.30
2022-10-04T11:22:45.461Z,22.60
2022-10-04T11:25:43.169Z,23.00
2022-10-04T11:28:17.240Z,23.20
2022-10-04T11:31:21.505Z,23.10
2022-10-04T11:34:31.623Z,22.80
2022-10-04T11:37:12.175Z,23.00
2022-10-04T11:40:10.613Z,23.20
2022-10-04T11:42:57.305Z,23.50
2022-10-04T11:45:54.903Z,24.00
2022-10-04T11:48:35.369Z,24.00
2022-10-04T11:51:31.665Z,24.10
2022-10-04T11:54:32.494Z,24.50
2022-10-04T11:57:20.814Z,24.70
2022-10-04T12:00:01.251Z,24.50
2022-10-04T12:03:32.288Z,24.50
2022-10-04T12:06:23.534Z,24.60
2022-10-04T12:09:04.985Z,24.90
2022-10-04T12:12:32.031Z,25.20
2022-10-04T12:15:39.627Z,25.10
2022-10-04T12:18:46.987Z,25.00
2022-10-04T12:21:52.543Z,25.40
2022-10-04T12:24:51.990Z,26.00
2022-10-04T12:27:52.750Z,26.50
2022-10-04T12:30:36.822Z,26.70
2022-10-04T12:33:13.542Z,26.10
2022-10-04T12:36:00.110Z,26.00
2022-10-04T12:38:55.103Z,25.70
2022-10-04T12:41:38.145Z,25.80
2022-10-04T12:44:23.944Z,26.10
2022-10-04T12:47:04.990Z,26.30
2022-10-04T12:49:47.042Z,26.40
2022-10-04T12:52:20.013Z,26.30
2022-10-04T12:54:53.194Z,26.30
2022-10-04T12:57:45.706Z,26.70
2022-10-04T13:00:20.928Z,26.70
2022-10-04T13:03:03.979Z,26.50
2022-10-04T13:05:38.944Z,26.30
2022-10-04T13:08:20.459Z,25.90
2022-10-04T13:11:08.406Z,26.00
2022-10-04T13:13:58.904Z,26.40
2022-10-04T13:19:30.905Z,26.50
2022-10-04T13:22:51.329Z,25.60
2022-10-04T13:25:32.819Z,25.50
2022-10-04T13:28:05.817Z,25.20
2022-10-04T13:30:39.499Z,24.50
2022-10-04T13:33:19.873Z,24.10
2022-10-04T13:35:56.762Z,24.00
2022-10-04T13:38:43.836Z,23.80
2022-10-04T13:41:24.841Z,23.50
2022-10-04T13:44:13.504Z,23.60
2022-10-04T13:46:52.852Z,24.10
2022-10-04T13:49:38.513Z,24.50
2022-10-04T13:52:34.406Z,25.00
2022-10-04T13:55:38.037Z,25.10
2022-10-04T13:58:23.075Z,25.20
2022-10-04T14:01:34.332Z,25.00
2022-10-04T14:04:24.561Z,24.40
2022-10-04T14:07:22.704Z,23.70
2022-10-04T14:10:03.404Z,23.50
2022-10-04T14:13:11.347Z,23.20
2022-10-04T14:16:01.828Z,22.80
2022-10-04T14:19:04.044Z,22.50
2022-10-04T14:22:08.290Z,22.20
2022-10-04T14:25:24.483Z,21.90
2022-10-04T14:28:14.688Z,21.60
2022-10-04T14:30:57.955Z,21.40
2022-10-04T14:33:52.181Z,21.20
2022-10-04T14:36:43.842Z,21.10
2022-10-04T14:39:42.768Z,20.90
2022-10-04T14:42:38.388Z,20.90
2022-10-04T14:45:44.675Z,20.90
2022-10-04T14:48:42.629Z,20.80
2022-10-04T14:51:36.112Z,20.80
2022-10-04T14:54:10.141Z,20.80
2022-10-04T14:56:53.712Z,20.80
2022-10-04T14:59:47.206Z,20.70
2022-10-04T15:02:40.565Z,20.70
2022-10-04T15:05:37.774Z,20.80
2022-10-04T15:08:42.045Z,20.70
2022-10-04T15:11:13.929Z,20.70
2022-10-04T15:13:56.002Z,20.60
2022-10-04T15:16:38.113Z,20.60
2022-10-04T15:19:12.695Z,20.50
2022-10-04T15:21:46.749Z,20.50
2022-10-04T15:24:30.755Z,20.40
2022-10-04T15:27:34.322Z,20.30
2022-10-04T15:30:12.959Z,20.40
2022-10-04T15:32:50.893Z,20.30
2022-10-04T15:35:31.694Z,20.40
2022-10-04T15:53:42.313Z,20.10
2022-10-04T15:56:23.397Z,19.90
2022-10-04T15:59:19.301Z,19.90
2022-10-04T16:02:19.857Z,20.00
2022-10-04T16:05:00.881Z,20.00
2022-10-04T16:07:59.884Z,20.00
2022-10-04T16:10:48.564Z,20.00
2022-10-04T16:13:34.306Z,20.10
2022-10-04T16:16:59.895Z,20.10
2022-10-04T16:19:40.813Z,20.10
2022-10-04T16:22:16.402Z,20.10
2022-10-04T16:24:49.012Z,20.10
